首页
METAR-TAF:

METAR-TAF

机场 :

费南迪纳比奇, 佛罗里达州, 美国

纬度: 30-36-43N, 经度: 081-27-40W, 海拔: 5米

当前天气观测

该预报发布于9分钟前的19:55 UTC
风速8节,风向
温度 14°C
湿度 72%
气压 1012 hPa
能見度: 16.1公里
天空无云

METAR: KFHB 171955Z AUTO 36008KT 10SM CLR 14/09 A2989 RMK AO2 T01410091

时间: 15:04 (20:04 UTC)


TAF: 丢失

超过4000个机场的气象观测和天气预报(METAR&TAF报告)。

可查询的气象台以黄色和红色小点在地图上表示。

将鼠标移到小点上方,可查看气象台名称。

然后点击查看天气观测和预报。

如需切换地图:点击带黑十字的绿色按钮放大地图;点击带横线的绿色按钮缩小地图;或者点击绿色箭头查看邻近地区的地图。


METAR-TAF: